NOZ416 ENGM-ENAL
Flight info
| Callsign | NOZ416 |
|---|---|
| Flight time | N/A |
| Altitude | 34000 |
| Route | ENGM/19R EVTOG DCT UTRUF DCT UFGUG DCT OBITI |
| Aircraft | B738/M-SDE2E3GHIJ1LRWXY/LB1 |
Departure
| Time | N/A |
|---|---|
| Airport | Oslo-Gardermoen International Airport (ENGM) |
Arrival
| Time | 2026-05-06 20:14 |
|---|---|
| Airport | Ålesund Airport (ENAL) |
| Time | Latitude | Longitude | Altitude | Speed | Heading |
|---|---|---|---|---|---|
| 2026-05-06 20:08 | 62.67957 | 6.51002 | 4418 ft | 177 kts | 219° |
| 2026-05-06 20:08 | 62.67001 | 6.49390 | 4163 ft | 175 kts | 219° |
| 2026-05-06 20:09 | 62.66042 | 6.47763 | 3904 ft | 173 kts | 219° |
| 2026-05-06 20:09 | 62.65097 | 6.46160 | 3648 ft | 171 kts | 219° |
| 2026-05-06 20:09 | 62.64167 | 6.44582 | 3388 ft | 169 kts | 219° |
| 2026-05-06 20:09 | 62.63264 | 6.42961 | 3159 ft | 165 kts | 225° |
| 2026-05-06 20:10 | 62.62598 | 6.40999 | 3046 ft | 163 kts | 239° |
| 2026-05-06 20:10 | 62.62075 | 6.38797 | 2795 ft | 165 kts | 242° |
| 2026-05-06 20:10 | 62.61580 | 6.36566 | 2564 ft | 162 kts | 243° |
| 2026-05-06 20:10 | 62.61122 | 6.34454 | 2346 ft | 161 kts | 242° |
| 2026-05-06 20:11 | 62.60628 | 6.32153 | 2107 ft | 162 kts | 242° |
| 2026-05-06 20:11 | 62.60137 | 6.29881 | 1871 ft | 163 kts | 242° |
| 2026-05-06 20:11 | 62.59655 | 6.27651 | 1640 ft | 160 kts | 242° |
| 2026-05-06 20:11 | 62.59184 | 6.25476 | 1435 ft | 153 kts | 242° |
| 2026-05-06 20:12 | 62.58743 | 6.23438 | 1232 ft | 140 kts | 242° |
| 2026-05-06 20:12 | 62.58339 | 6.21584 | 1012 ft | 136 kts | 242° |
| 2026-05-06 20:12 | 62.57941 | 6.19753 | 826 ft | 133 kts | 243° |
| 2026-05-06 20:12 | 62.57544 | 6.17938 | 649 ft | 133 kts | 242° |
| 2026-05-06 20:13 | 62.57155 | 6.16162 | 462 ft | 130 kts | 243° |
| 2026-05-06 20:13 | 62.56776 | 6.14415 | 259 ft | 126 kts | 242° |
| 2026-05-06 20:13 | 62.56406 | 6.12711 | 90 ft | 124 kts | 243° |
| 2026-05-06 20:13 | 62.56092 | 6.11273 | 79 ft | 70 kts | 244° |
| 2026-05-06 20:14 | 62.55941 | 6.10583 | 70 ft | 42 kts | 244° |
| 2026-05-06 20:14 | 62.55889 | 6.10275 | 61 ft | 7 kts | 259° |
| 2026-05-06 20:14 | 62.55871 | 6.10272 | 60 ft | 4 kts | 113° |
| 2026-05-06 20:14 | 62.55882 | 6.10345 | 62 ft | 7 kts | 63° |
| 2026-05-06 20:15 | 62.55921 | 6.10496 | 67 ft | 14 kts | 61° |
| 2026-05-06 20:15 | 62.55944 | 6.10680 | 72 ft | 11 kts | 100° |
| 2026-05-06 20:15 | 62.55927 | 6.10826 | 74 ft | 9 kts | 105° |
| 2026-05-06 20:15 | 62.55907 | 6.10981 | 77 ft | 11 kts | 106° |
| 2026-05-06 20:16 | 62.55896 | 6.11122 | 78 ft | 9 kts | 82° |
| 2026-05-06 20:16 | 62.55923 | 6.11264 | 77 ft | 11 kts | 64° |
| 2026-05-06 20:16 | 62.55955 | 6.11409 | 78 ft | 5 kts | 69° |
| 2026-05-06 20:16 | 62.55945 | 6.11436 | 78 ft | 2 kts | 152° |
| 2026-05-06 20:17 | 62.55928 | 6.11456 | 78 ft | 2 kts | 154° |
| 2026-05-06 20:17 | 62.55920 | 6.11463 | 78 ft | 1 kts | 154° |
| 2026-05-06 20:17 | 62.55911 | 6.11473 | 79 ft | 0 kts | 154° |